createdAt,value
2018-11-27T00:00:21.476Z,16.10
2018-11-27T00:02:49.579Z,16.48
2018-11-27T00:05:17.822Z,16.12
2018-11-27T00:07:45.905Z,15.93
2018-11-27T00:10:13.984Z,15.98
2018-11-27T00:12:42.127Z,15.85
2018-11-27T00:15:11.966Z,15.48
2018-11-27T00:17:40.121Z,16.10
2018-11-27T00:20:09.719Z,15.10
2018-11-27T00:22:38.179Z,15.88
2018-11-27T00:25:12.518Z,15.50
2018-11-27T00:27:40.768Z,15.47
2018-11-27T00:30:11.169Z,15.83
2018-11-27T00:32:39.235Z,15.28
2018-11-27T00:35:10.603Z,15.63
2018-11-27T00:37:38.761Z,15.32
2018-11-27T00:40:10.272Z,15.60
2018-11-27T00:42:38.468Z,15.68
2018-11-27T00:45:08.567Z,15.30
2018-11-27T00:47:36.667Z,15.32
2018-11-27T00:50:09.500Z,15.40
2018-11-27T00:52:37.707Z,15.25
2018-11-27T00:55:07.127Z,15.83
2018-11-27T00:57:35.243Z,15.48
2018-11-27T01:00:04.570Z,15.35
2018-11-27T01:02:32.654Z,15.25
2018-11-27T01:05:00.727Z,15.48
2018-11-27T01:07:28.815Z,15.88
2018-11-27T01:09:56.936Z,15.63
2018-11-27T01:12:25.078Z,15.37
2018-11-27T01:14:53.142Z,15.50
2018-11-27T01:17:21.236Z,15.83
2018-11-27T01:19:49.346Z,15.28
2018-11-27T01:22:17.499Z,15.60
2018-11-27T01:24:45.580Z,15.93
2018-11-27T01:27:13.827Z,15.40
2018-11-27T01:29:41.902Z,15.83
2018-11-27T01:32:10.008Z,15.57
2018-11-27T01:34:38.101Z,16.12
2018-11-27T01:37:06.251Z,15.65
2018-11-27T01:39:34.328Z,16.15
2018-11-27T01:42:02.435Z,15.48
2018-11-27T01:44:30.502Z,15.88
2018-11-27T01:46:58.595Z,16.05
2018-11-27T01:49:26.711Z,16.82
2018-11-27T01:51:55.744Z,15.08
2018-11-27T01:54:23.826Z,16.10
2018-11-27T01:56:51.975Z,16.23
2018-11-27T01:59:20.100Z,16.00
2018-11-27T02:01:48.195Z,16.10
2018-11-27T02:04:16.271Z,15.65
2018-11-27T02:06:44.440Z,16.55
2018-11-27T02:09:12.559Z,16.90
2018-11-27T02:11:40.736Z,16.23
2018-11-27T02:14:08.827Z,15.90
2018-11-27T02:16:37.000Z,16.23
2018-11-27T02:19:05.258Z,16.42
2018-11-27T02:21:33.413Z,15.25
2018-11-27T02:24:01.605Z,15.53
2018-11-27T02:26:29.780Z,15.78
2018-11-27T02:28:57.855Z,15.68
2018-11-27T02:31:26.000Z,16.20
2018-11-27T02:33:54.151Z,15.60
2018-11-27T02:36:22.331Z,15.63
2018-11-27T02:38:50.429Z,15.83
2018-11-27T02:41:18.652Z,16.10
2018-11-27T02:43:46.768Z,15.23
2018-11-27T02:46:14.871Z,16.07
2018-11-27T02:48:42.983Z,15.93
2018-11-27T02:51:11.171Z,15.78
2018-11-27T02:53:39.280Z,15.45
2018-11-27T02:56:07.436Z,16.37
2018-11-27T02:58:35.547Z,15.83
2018-11-27T03:01:03.624Z,15.68
2018-11-27T03:03:31.800Z,15.65
2018-11-27T03:05:59.940Z,15.75
2018-11-27T03:08:28.051Z,16.33
2018-11-27T03:10:56.219Z,15.75
2018-11-27T03:13:24.338Z,16.30
2018-11-27T03:15:52.443Z,16.25
2018-11-27T03:18:20.535Z,16.47
2018-11-27T03:20:48.794Z,16.02
2018-11-27T03:23:16.947Z,16.85
2018-11-27T03:25:45.068Z,16.32
2018-11-27T03:28:14.529Z,16.82
2018-11-27T03:30:41.320Z,17.07
2018-11-27T03:33:09.448Z,16.23
2018-11-27T03:35:37.540Z,16.37
2018-11-27T03:38:05.959Z,17.05
2018-11-27T03:40:34.215Z,17.00
2018-11-27T03:43:02.317Z,16.70
2018-11-27T03:45:30.401Z,16.30
2018-11-27T03:47:58.513Z,17.45
2018-11-27T03:50:28.781Z,16.60
2018-11-27T03:52:56.905Z,17.10
2018-11-27T03:55:24.988Z,16.10
2018-11-27T03:57:53.308Z,18.07
2018-11-27T04:00:24.034Z,17.20
2018-11-27T04:03:11.382Z,16.80
2018-11-27T04:05:39.944Z,16.50
2018-11-27T04:08:08.942Z,16.77
2018-11-27T04:10:37.618Z,16.97
2018-11-27T04:13:05.762Z,17.07
2018-11-27T04:15:34.075Z,17.57
2018-11-27T04:18:02.186Z,17.02
2018-11-27T04:20:30.392Z,16.55
2018-11-27T04:22:58.483Z,17.32
2018-11-27T04:25:26.627Z,17.37
2018-11-27T04:27:54.869Z,17.70
2018-11-27T04:30:23.300Z,17.43
2018-11-27T04:32:51.552Z,16.95
2018-11-27T04:35:21.204Z,17.15
2018-11-27T04:37:49.372Z,17.32
2018-11-27T04:40:19.243Z,17.40
2018-11-27T04:42:48.468Z,18.27
2018-11-27T04:45:20.572Z,17.17
2018-11-27T04:47:48.699Z,17.80
2018-11-27T04:50:17.320Z,16.90
2018-11-27T04:52:45.536Z,16.95
2018-11-27T04:55:14.718Z,16.80
2018-11-27T04:57:43.328Z,17.17
2018-11-27T05:00:15.464Z,17.60
2018-11-27T05:02:43.602Z,17.50
2018-11-27T05:05:11.794Z,16.30
2018-11-27T05:07:40.169Z,17.85
2018-11-27T05:10:10.535Z,17.47
2018-11-27T05:12:38.957Z,17.85
2018-11-27T05:15:10.283Z,18.20
2018-11-27T05:17:38.648Z,18.12
2018-11-27T05:20:08.551Z,17.95
2018-11-27T05:22:36.823Z,17.90
2018-11-27T05:25:06.880Z,17.82
2018-11-27T05:27:34.980Z,18.65
2018-11-27T05:30:04.142Z,18.07
2018-11-27T05:32:32.251Z,17.93
2018-11-27T05:35:00.340Z,18.15
2018-11-27T05:37:28.468Z,18.62
2018-11-27T05:39:56.542Z,18.00
2018-11-27T05:42:24.698Z,17.87
2018-11-27T05:44:52.819Z,17.35
2018-11-27T05:47:20.960Z,18.35
2018-11-27T05:49:49.111Z,18.17
2018-11-27T05:52:17.268Z,18.30
2018-11-27T05:54:45.346Z,18.10
2018-11-27T05:57:13.676Z,18.23
2018-11-27T05:59:41.763Z,18.05
2018-11-27T06:02:09.902Z,18.13
2018-11-27T06:04:37.971Z,17.85
2018-11-27T06:07:06.230Z,18.52
2018-11-27T06:09:34.324Z,18.20
2018-11-27T06:12:02.431Z,17.52
2018-11-27T06:14:30.565Z,18.70
2018-11-27T06:16:58.663Z,17.73
2018-11-27T06:19:26.763Z,18.82
2018-11-27T06:21:54.944Z,18.77
2018-11-27T06:24:23.055Z,17.95
2018-11-27T06:26:51.312Z,18.60
2018-11-27T06:29:19.415Z,18.25
2018-11-27T06:31:47.508Z,18.12
2018-11-27T06:34:15.623Z,19.20
2018-11-27T06:36:43.727Z,18.32
2018-11-27T06:39:11.835Z,18.40
2018-11-27T06:41:39.947Z,18.82
2018-11-27T06:44:08.093Z,18.20
2018-11-27T06:46:36.191Z,18.87
2018-11-27T06:49:04.302Z,18.45
2018-11-27T06:51:32.438Z,18.57
2018-11-27T06:54:00.530Z,18.15
2018-11-27T06:56:28.635Z,19.30
2018-11-27T06:58:56.766Z,19.25
2018-11-27T07:01:24.871Z,18.73
2018-11-27T07:03:53.063Z,19.35
2018-11-27T07:06:21.132Z,19.45
2018-11-27T07:08:49.888Z,19.10
2018-11-27T07:11:18.703Z,18.52
2018-11-27T07:13:46.814Z,19.12
2018-11-27T07:16:14.912Z,19.35
2018-11-27T07:18:43.219Z,18.80
2018-11-27T07:21:11.373Z,18.92
2018-11-27T07:23:39.499Z,18.53
2018-11-27T07:26:07.606Z,19.17
2018-11-27T07:28:35.882Z,18.90
2018-11-27T07:31:04.045Z,19.43
2018-11-27T07:33:32.308Z,19.10
2018-11-27T07:36:00.727Z,18.27
2018-11-27T07:38:28.930Z,18.10
2018-11-27T07:40:57.069Z,18.48
2018-11-27T07:43:25.395Z,19.07
2018-11-27T07:45:55.302Z,18.27
2018-11-27T07:48:21.706Z,18.92
2018-11-27T07:50:49.931Z,18.23
2018-11-27T07:53:18.003Z,18.07
2018-11-27T07:55:46.131Z,19.37
2018-11-27T07:58:14.844Z,18.95
2018-11-27T08:00:43.126Z,18.95
2018-11-27T08:03:11.199Z,19.75
2018-11-27T08:05:40.376Z,19.03
2018-11-27T08:08:13.072Z,18.65
2018-11-27T08:10:41.627Z,18.90
2018-11-27T08:13:10.186Z,19.67
2018-11-27T08:15:38.375Z,19.75
2018-11-27T08:18:06.483Z,20.15
2018-11-27T08:20:34.864Z,19.27
2018-11-27T08:23:03.344Z,17.95
2018-11-27T08:25:31.692Z,19.17
2018-11-27T08:27:59.877Z,19.40
2018-11-27T08:30:28.090Z,17.92
2018-11-27T08:32:56.655Z,18.52
2018-11-27T08:35:27.013Z,18.60
2018-11-27T08:37:57.166Z,18.95
2018-11-27T08:40:26.429Z,19.23
2018-11-27T08:42:54.607Z,18.60
2018-11-27T08:45:23.654Z,17.73
2018-11-27T08:47:52.651Z,18.30
2018-11-27T08:50:21.938Z,17.90
2018-11-27T08:52:51.324Z,19.07
2018-11-27T08:55:21.069Z,18.20
2018-11-27T08:57:49.370Z,18.40
2018-11-27T09:00:19.451Z,18.95
2018-11-27T09:02:47.778Z,19.25
2018-11-27T09:05:15.894Z,18.80
2018-11-27T09:07:44.477Z,17.48
2018-11-27T09:10:15.010Z,17.92
2018-11-27T09:12:43.090Z,17.95
2018-11-27T09:15:12.794Z,18.00
2018-11-27T09:17:42.021Z,18.63
2018-11-27T09:20:11.199Z,18.37
2018-11-27T09:22:39.442Z,18.35
2018-11-27T09:25:13.227Z,18.10
2018-11-27T09:27:41.326Z,18.40
2018-11-27T09:30:12.270Z,18.23
2018-11-27T09:32:40.395Z,18.45
2018-11-27T09:35:08.847Z,18.30
2018-11-27T09:37:36.956Z,18.60
2018-11-27T09:40:13.069Z,18.73
2018-11-27T09:42:41.235Z,18.32
2018-11-27T09:45:11.858Z,17.95
2018-11-27T09:47:40.179Z,18.85
2018-11-27T09:50:10.771Z,18.42
2018-11-27T09:52:38.875Z,18.02
2018-11-27T09:55:25.091Z,18.77
2018-11-27T09:57:58.771Z,18.00
2018-11-27T10:00:23.555Z,17.65
2018-11-27T10:02:52.754Z,18.00
2018-11-27T10:05:20.907Z,17.98
2018-11-27T10:07:49.017Z,17.45
2018-11-27T10:10:18.688Z,17.55
2018-11-27T10:12:46.799Z,17.48
2018-11-27T10:15:19.691Z,17.45
2018-11-27T10:17:50.094Z,17.67
2018-11-27T10:20:19.284Z,16.80
2018-11-27T10:22:47.514Z,17.87
2018-11-27T10:25:15.609Z,17.65
2018-11-27T10:27:44.383Z,16.93
2018-11-27T10:30:15.473Z,18.30
2018-11-27T10:32:43.562Z,17.77
2018-11-27T10:35:17.028Z,18.30
2018-11-27T10:37:45.355Z,17.48
2018-11-27T10:40:13.484Z,18.42
2018-11-27T10:42:41.733Z,17.87
2018-11-27T10:45:14.122Z,18.15
2018-11-27T10:47:42.613Z,17.70
2018-11-27T10:50:11.808Z,18.33
2018-11-27T10:52:41.428Z,19.17
2018-11-27T10:55:11.047Z,18.27
2018-11-27T10:57:39.159Z,18.77
2018-11-27T11:00:22.940Z,18.65
2018-11-27T11:02:56.679Z,19.10
2018-11-27T11:05:25.906Z,18.73
2018-11-27T11:07:54.018Z,18.80
2018-11-27T11:10:22.289Z,18.73
2018-11-27T11:12:50.630Z,19.15
2018-11-27T11:15:18.795Z,18.17
2018-11-27T11:17:46.993Z,19.17
2018-11-27T11:20:15.132Z,18.63
2018-11-27T11:22:43.215Z,19.17
2018-11-27T11:25:13.716Z,19.20
2018-11-27T11:27:42.108Z,19.20
2018-11-27T11:30:18.122Z,19.15
2018-11-27T11:32:46.298Z,18.90
2018-11-27T11:35:14.519Z,19.80
2018-11-27T11:37:42.900Z,19.67
2018-11-27T11:40:16.179Z,19.77
2018-11-27T11:42:44.358Z,19.67
2018-11-27T11:45:12.735Z,20.15
2018-11-27T11:47:41.142Z,20.27
2018-11-27T11:50:13.587Z,19.55
2018-11-27T11:52:45.363Z,20.23
2018-11-27T11:55:12.192Z,20.17
2018-11-27T11:57:40.363Z,20.05
2018-11-27T12:00:12.145Z,20.90
2018-11-27T12:02:40.268Z,20.37
2018-11-27T12:05:09.527Z,20.55
2018-11-27T12:07:37.734Z,20.72
2018-11-27T12:10:08.410Z,21.27
2018-11-27T12:12:36.526Z,21.02
2018-11-27T12:15:05.873Z,21.10
2018-11-27T12:17:34.020Z,21.17
2018-11-27T12:20:02.247Z,21.00
2018-11-27T12:22:30.387Z,21.80
2018-11-27T12:24:58.675Z,22.80
2018-11-27T12:27:26.951Z,20.85
2018-11-27T12:29:55.107Z,21.60
2018-11-27T12:32:23.190Z,20.90
2018-11-27T12:34:51.379Z,21.55
2018-11-27T12:37:19.558Z,22.07
2018-11-27T12:39:47.655Z,21.40
2018-11-27T12:42:15.744Z,21.35
2018-11-27T12:44:43.832Z,21.37
2018-11-27T12:47:11.964Z,21.62
2018-11-27T12:49:40.132Z,21.57
2018-11-27T12:52:08.234Z,21.62
2018-11-27T12:54:36.319Z,22.37
2018-11-27T12:57:04.639Z,21.35
2018-11-27T12:59:32.757Z,22.30
2018-11-27T13:02:00.896Z,21.73
2018-11-27T13:04:28.991Z,21.62
2018-11-27T13:06:57.159Z,22.13
2018-11-27T13:09:25.972Z,21.17
2018-11-27T13:11:54.068Z,21.83
2018-11-27T13:14:22.155Z,22.95
2018-11-27T13:16:50.295Z,22.15
2018-11-27T13:19:18.512Z,21.55
2018-11-27T13:21:46.605Z,22.27
2018-11-27T13:24:14.702Z,22.48
2018-11-27T13:26:42.850Z,23.00
2018-11-27T13:29:10.978Z,21.75
2018-11-27T13:31:39.184Z,22.32
2018-11-27T13:34:09.983Z,22.75
2018-11-27T13:36:38.210Z,22.82
2018-11-27T13:39:17.879Z,22.35
2018-11-27T13:41:46.154Z,22.10
2018-11-27T13:44:15.144Z,21.87
2018-11-27T13:46:43.323Z,22.15
2018-11-27T13:49:11.548Z,22.63
2018-11-27T13:51:39.652Z,22.45
2018-11-27T13:54:07.833Z,23.62
2018-11-27T13:56:35.935Z,24.05
2018-11-27T13:59:04.067Z,26.17
2018-11-27T14:01:37.521Z,23.80
2018-11-27T14:04:00.355Z,24.75
2018-11-27T14:06:28.433Z,24.43
2018-11-27T14:08:56.569Z,24.37
2018-11-27T14:11:24.630Z,24.18
2018-11-27T14:13:52.794Z,24.27
2018-11-27T14:16:20.899Z,24.43
2018-11-27T14:18:49.057Z,25.52
2018-11-27T14:21:17.249Z,26.45
2018-11-27T14:23:45.471Z,26.20
2018-11-27T14:26:13.557Z,25.08
2018-11-27T14:28:41.657Z,39.13
2018-11-27T14:31:09.929Z,29.00
2018-11-27T14:33:38.131Z,27.13
2018-11-27T14:36:06.254Z,27.57
2018-11-27T14:38:34.439Z,26.00
2018-11-27T14:41:02.639Z,27.10
2018-11-27T14:43:31.052Z,27.25
2018-11-27T14:45:59.190Z,27.40
2018-11-27T14:48:27.336Z,26.68
2018-11-27T14:50:55.462Z,30.72
2018-11-27T14:53:23.611Z,26.87
2018-11-27T14:55:51.844Z,26.87
2018-11-27T14:58:20.071Z,27.30
2018-11-27T15:00:48.249Z,27.93
2018-11-27T15:03:16.494Z,27.87
2018-11-27T15:05:44.643Z,27.03
2018-11-27T15:08:13.447Z,28.60
2018-11-27T15:10:41.578Z,28.45
2018-11-27T15:13:10.731Z,26.97
2018-11-27T15:15:38.967Z,28.73
2018-11-27T15:18:07.224Z,28.55
2018-11-27T15:20:35.356Z,29.92
2018-11-27T15:23:03.452Z,29.12
2018-11-27T15:25:31.635Z,27.60
2018-11-27T15:27:59.735Z,28.23
2018-11-27T15:30:30.290Z,28.05
2018-11-27T15:32:59.554Z,26.70
2018-11-27T15:35:27.734Z,27.13
2018-11-27T15:37:55.842Z,26.95
2018-11-27T15:40:26.262Z,27.90
2018-11-27T15:42:54.409Z,28.12
2018-11-27T15:45:37.397Z,27.77
2018-11-27T15:48:07.463Z,28.80
2018-11-27T15:50:35.596Z,27.60
2018-11-27T15:53:03.758Z,26.95
2018-11-27T15:55:33.312Z,27.35
2018-11-27T15:58:10.476Z,27.77
2018-11-27T16:00:39.127Z,27.82
2018-11-27T16:03:07.541Z,28.17
2018-11-27T16:05:36.588Z,28.70
2018-11-27T16:08:05.003Z,26.73
2018-11-27T16:10:33.264Z,28.23
2018-11-27T16:13:01.400Z,27.42
2018-11-27T16:15:29.508Z,29.48
2018-11-27T16:17:57.657Z,28.67
2018-11-27T16:20:26.789Z,28.57
2018-11-27T16:22:54.983Z,28.97
2018-11-27T16:25:25.749Z,28.17
2018-11-27T16:27:52.747Z,27.90
2018-11-27T16:30:22.944Z,28.57
2018-11-27T16:32:51.070Z,28.10
2018-11-27T16:35:19.255Z,27.77
2018-11-27T16:37:51.467Z,27.58
2018-11-27T16:40:21.979Z,28.35
2018-11-27T16:42:50.091Z,28.92
2018-11-27T16:45:21.015Z,28.80
2018-11-27T16:47:49.449Z,28.60
2018-11-27T16:50:18.082Z,28.40
2018-11-27T16:52:46.327Z,28.02
2018-11-27T16:55:15.702Z,28.27
2018-11-27T16:57:43.815Z,28.47
2018-11-27T17:00:14.571Z,28.57
2018-11-27T17:02:42.723Z,28.60
2018-11-27T17:05:10.830Z,28.83
2018-11-27T17:07:38.995Z,28.65
2018-11-27T17:10:15.287Z,28.92
2018-11-27T17:12:43.844Z,28.42
2018-11-27T17:15:14.255Z,29.23
2018-11-27T17:17:42.381Z,28.70
2018-11-27T17:20:19.826Z,27.80
2018-11-27T17:22:48.092Z,28.15
2018-11-27T17:25:16.199Z,28.55
2018-11-27T17:27:44.523Z,28.57
2018-11-27T17:30:17.760Z,28.52
2018-11-27T17:32:45.854Z,28.47
2018-11-27T17:35:13.963Z,28.55
2018-11-27T17:37:42.148Z,28.45
2018-11-27T17:40:11.671Z,28.05
2018-11-27T17:42:39.855Z,28.07
2018-11-27T17:45:11.197Z,28.55
2018-11-27T17:47:39.422Z,27.90
2018-11-27T17:50:11.663Z,28.55
2018-11-27T17:52:39.900Z,27.33
2018-11-27T17:55:09.442Z,28.05
2018-11-27T17:57:37.631Z,27.80
2018-11-27T18:00:22.679Z,27.35
2018-11-27T18:02:52.307Z,28.12
2018-11-27T18:05:20.405Z,28.40
2018-11-27T18:07:48.618Z,27.52
2018-11-27T18:10:16.740Z,28.77
2018-11-27T18:12:44.927Z,27.82
2018-11-27T18:15:16.343Z,27.90
2018-11-27T18:17:44.493Z,27.85
2018-11-27T18:20:48.108Z,28.17
2018-11-27T18:23:16.288Z,27.95
2018-11-27T18:25:44.447Z,27.10
2018-11-27T18:28:12.631Z,28.50
2018-11-27T18:30:40.747Z,28.32
2018-11-27T18:33:08.847Z,27.67
2018-11-27T18:35:36.955Z,27.58
2018-11-27T18:38:05.727Z,28.40
2018-11-27T18:40:33.917Z,27.37
2018-11-27T18:43:02.078Z,32.15
2018-11-27T18:45:31.002Z,30.60
2018-11-27T18:47:59.187Z,28.57
2018-11-27T18:50:28.479Z,28.02
2018-11-27T18:52:56.601Z,28.73
2018-11-27T18:55:24.809Z,27.30
2018-11-27T18:57:52.978Z,28.85
2018-11-27T19:00:24.119Z,29.80
2018-11-27T19:02:52.433Z,29.98
2018-11-27T19:05:20.531Z,29.53
2018-11-27T19:07:48.784Z,29.72
2018-11-27T19:10:20.079Z,29.72
2018-11-27T19:12:48.422Z,29.07
2018-11-27T19:15:18.307Z,29.18
2018-11-27T19:17:47.720Z,30.32
2018-11-27T19:20:15.876Z,29.83
2018-11-27T19:22:44.053Z,29.52
2018-11-27T19:25:13.457Z,30.30
2018-11-27T19:27:41.697Z,29.87
2018-11-27T19:30:16.106Z,29.05
2018-11-27T19:32:42.231Z,29.20
2018-11-27T19:35:12.403Z,30.90
2018-11-27T19:37:40.583Z,30.55
2018-11-27T19:40:10.194Z,27.83
2018-11-27T19:42:38.329Z,28.83
2018-11-27T19:45:18.825Z,30.72
2018-11-27T19:47:46.940Z,32.75
2018-11-27T19:50:15.114Z,33.58
2018-11-27T19:52:44.186Z,33.08
2018-11-27T19:55:13.667Z,30.45
2018-11-27T19:57:41.841Z,29.72
2018-11-27T20:00:23.723Z,27.32
2018-11-27T20:02:51.912Z,27.05
2018-11-27T20:05:23.455Z,27.67
2018-11-27T20:07:51.559Z,27.70
2018-11-27T20:10:19.783Z,26.97
2018-11-27T20:12:47.916Z,29.10
2018-11-27T20:15:18.211Z,29.02
2018-11-27T20:17:47.015Z,29.55
2018-11-27T20:20:16.148Z,29.40
2018-11-27T20:22:44.613Z,27.98
2018-11-27T20:25:14.075Z,27.55
2018-11-27T20:27:42.170Z,26.05
2018-11-27T20:30:12.795Z,26.55
2018-11-27T20:32:41.734Z,26.75
2018-11-27T20:35:12.328Z,26.23
2018-11-27T20:37:40.506Z,25.05
2018-11-27T20:40:12.947Z,26.10
2018-11-27T20:42:41.119Z,26.23
2018-11-27T20:45:19.150Z,26.42
2018-11-27T20:47:41.961Z,26.90
2018-11-27T20:50:13.983Z,24.60
2018-11-27T20:52:42.123Z,26.07
2018-11-27T20:55:10.399Z,26.12
2018-11-27T20:57:38.890Z,26.70
2018-11-27T21:00:15.337Z,25.80
2018-11-27T21:02:44.524Z,26.47
2018-11-27T21:05:11.672Z,27.00
2018-11-27T21:07:39.935Z,26.73
2018-11-27T21:10:10.918Z,27.20
2018-11-27T21:12:39.428Z,26.30
2018-11-27T21:15:11.027Z,25.75
2018-11-27T21:17:39.133Z,26.37
2018-11-27T21:20:09.860Z,26.50
2018-11-27T21:22:38.271Z,26.73
2018-11-27T21:25:11.439Z,26.57
2018-11-27T21:27:39.587Z,26.80
2018-11-27T21:30:15.411Z,26.73
2018-11-27T21:32:43.900Z,26.77
2018-11-27T21:35:13.271Z,26.23
2018-11-27T21:37:41.398Z,26.68
2018-11-27T21:40:11.707Z,27.00
2018-11-27T21:42:39.911Z,27.57
2018-11-27T21:45:11.491Z,28.00
2018-11-27T21:47:39.673Z,26.77
2018-11-27T21:50:10.600Z,28.38
2018-11-27T21:52:38.732Z,27.80
2018-11-27T21:55:12.629Z,28.02
2018-11-27T21:57:40.754Z,28.05
2018-11-27T22:00:13.790Z,27.22
2018-11-27T22:02:41.959Z,28.10
2018-11-27T22:05:10.486Z,28.05
2018-11-27T22:07:38.646Z,28.12
2018-11-27T22:10:09.094Z,27.55
2018-11-27T22:12:37.258Z,27.85
2018-11-27T22:15:10.042Z,29.23
2018-11-27T22:17:38.167Z,27.90
2018-11-27T22:20:08.510Z,28.60
2018-11-27T22:22:36.672Z,28.27
2018-11-27T22:25:07.451Z,28.00
2018-11-27T22:27:35.683Z,27.10
2018-11-27T22:30:04.445Z,27.77
2018-11-27T22:32:32.753Z,28.90
2018-11-27T22:35:00.867Z,28.12
2018-11-27T22:37:29.063Z,28.50
2018-11-27T22:39:57.173Z,28.20
2018-11-27T22:42:25.340Z,28.85
2018-11-27T22:44:53.479Z,28.10
2018-11-27T22:47:21.654Z,27.87
2018-11-27T22:49:49.855Z,27.70
2018-11-27T22:52:18.040Z,28.40
2018-11-27T22:54:46.183Z,27.90
2018-11-27T22:57:14.331Z,28.60
2018-11-27T22:59:42.515Z,28.32
2018-11-27T23:02:10.762Z,27.85
2018-11-27T23:04:39.113Z,28.17
2018-11-27T23:07:07.230Z,28.32
2018-11-27T23:09:35.435Z,26.90
2018-11-27T23:12:03.585Z,28.12
2018-11-27T23:14:31.812Z,27.85
2018-11-27T23:16:59.921Z,27.80
2018-11-27T23:19:28.033Z,27.13
2018-11-27T23:21:56.207Z,26.90
2018-11-27T23:24:24.331Z,27.80
2018-11-27T23:26:52.463Z,27.02
2018-11-27T23:29:20.691Z,27.02
2018-11-27T23:31:48.796Z,26.68
2018-11-27T23:34:16.984Z,27.17
2018-11-27T23:36:45.080Z,27.15
2018-11-27T23:39:13.311Z,27.75
2018-11-27T23:41:41.463Z,28.15
2018-11-27T23:44:09.732Z,28.35
2018-11-27T23:46:37.798Z,26.57
2018-11-27T23:49:05.934Z,27.60
2018-11-27T23:51:34.137Z,27.48
2018-11-27T23:54:02.253Z,27.85
2018-11-27T23:56:30.370Z,27.87
2018-11-27T23:58:58.459Z,28.15
